Time;durP1;ratioP1;P1;durP2;ratioP2;P2;SDS_P1;SDS_P2;PMS_P1;PMS_P2;Temp;Humidity;BMP_temperature;BMP_pressure;BME280_temperature;BME280_humidity;BME280_pressure;Samples;Min_cycle;Max_cycle;Signal;HPM_P1;HPM_P2
2023/10/17 00:00:38;;;;;;;0.97;0.97;;;;;;;12.53;70.26;100071.97;5104895;28;20251;-65
2023/10/17 00:03:06;;;;;;;1.17;1.07;;;;;;;12.51;70.36;100069.41;5108298;28;20735;-66
2023/10/17 00:05:33;;;;;;;1.10;1.10;;;;;;;12.51;70.24;100064.28;5100400;27;20283;-65
2023/10/17 00:08:04;;;;;;;1.00;1.00;;;;;;;12.46;69.91;100071.28;5093664;28;20203;-65
2023/10/17 00:10:37;;;;;;;1.40;1.40;;;;;;;12.44;69.91;100064.50;5090435;28;20195;-65
2023/10/17 00:13:20;;;;;;;0.80;0.80;;;;;;;12.39;70.43;100062.03;5094070;27;20199;-65
2023/10/17 00:15:47;;;;;;;0.77;0.77;;;;;;;12.37;70.46;100065.53;5110063;27;20702;-65
2023/10/17 00:18:18;;;;;;;1.73;1.63;;;;;;;12.30;70.64;100049.44;5111032;28;20586;-65
2023/10/17 00:20:46;;;;;;;0.70;0.70;;;;;;;12.20;70.68;100037.72;5111013;28;20539;-65
2023/10/17 00:23:15;;;;;;;0.73;0.73;;;;;;;12.27;70.38;100059.81;5110814;28;20241;-65
2023/10/17 00:25:45;;;;;;;0.60;0.60;;;;;;;12.24;70.84;100059.03;5109558;28;20230;-66
2023/10/17 00:28:13;;;;;;;1.00;1.00;;;;;;;12.21;70.45;100054.81;5110926;28;20574;-65
2023/10/17 00:30:41;;;;;;;2.23;1.00;;;;;;;12.21;70.72;100064.25;5110510;28;20206;-65
2023/10/17 00:33:10;;;;;;;0.67;0.67;;;;;;;12.18;70.51;100057.44;5112465;28;20193;-65
2023/10/17 00:35:39;;;;;;;0.83;0.83;;;;;;;12.15;70.17;100054.97;5114026;28;20252;-65
2023/10/17 00:38:07;;;;;;;0.70;0.70;;;;;;;12.12;70.62;100060.19;5114707;28;20201;-65
2023/10/17 00:40:45;;;;;;;0.60;0.60;;;;;;;12.07;70.33;100060.31;5114880;28;20202;-65
2023/10/17 00:43:12;;;;;;;0.80;0.80;;;;;;;12.02;70.00;100057.00;5114837;28;20898;-65
2023/10/17 00:45:40;;;;;;;0.90;0.90;;;;;;;12.02;70.31;100056.16;5115214;27;20238;-65
2023/10/17 00:48:09;;;;;;;0.93;0.93;;;;;;;11.93;69.97;100048.69;5111200;27;20226;-65
2023/10/17 00:50:37;;;;;;;1.00;1.00;;;;;;;11.94;70.65;100051.25;5114525;28;20275;-65
2023/10/17 00:53:06;;;;;;;0.73;0.73;;;;;;;11.90;70.86;100053.91;5114602;28;20227;-65
2023/10/17 00:55:37;;;;;;;0.70;0.70;;;;;;;11.88;70.92;100050.53;5102797;27;20195;-65
2023/10/17 00:58:06;;;;;;;0.93;0.93;;;;;;;11.83;70.80;100047.22;5093633;28;20298;-65
2023/10/17 01:00:37;;;;;;;2.03;1.03;;;;;;;11.81;70.50;100049.00;5100084;28;20209;-65
2023/10/17 01:03:10;;;;;;;3.87;1.07;;;;;;;11.73;70.70;100043.22;5114464;28;20210;-65
2023/10/17 01:05:57;;;;;;;1.50;1.30;;;;;;;11.69;71.20;100045.00;5103762;27;20201;-65
2023/10/17 01:08:39;;;;;;;0.70;0.70;;;;;;;11.65;72.06;100042.53;5094029;28;20223;-65
2023/10/17 01:11:15;;;;;;;0.70;0.70;;;;;;;11.50;72.53;100047.13;5113685;28;20202;-65
2023/10/17 01:13:42;;;;;;;0.90;0.90;;;;;;;11.48;72.53;100042.91;5108390;27;20551;-65
2023/10/17 01:16:10;;;;;;;1.50;1.50;;;;;;;11.44;72.29;100042.16;5095101;27;20227;-65
2023/10/17 01:18:37;;;;;;;0.50;0.50;;;;;;;11.43;72.45;100048.19;5093641;28;20199;-65
2023/10/17 01:21:05;;;;;;;2.53;1.37;;;;;;;11.42;72.23;100051.63;5093363;28;20231;-65
2023/10/17 01:23:31;;;;;;;1.50;0.90;;;;;;;11.41;72.52;100043.94;5093772;28;20218;-65
2023/10/17 01:26:05;;;;;;;1.10;1.10;;;;;;;11.39;71.55;100050.84;5097060;27;20204;-65
2023/10/17 01:28:31;;;;;;;2.13;0.97;;;;;;;11.26;71.99;100027.19;5093773;28;20229;-65
2023/10/17 01:31:01;;;;;;;1.03;0.97;;;;;;;11.36;71.90;100046.63;5093321;28;20252;-66
2023/10/17 01:33:29;;;;;;;4.60;1.30;;;;;;;11.35;71.94;100052.63;5093448;28;20571;-65
2023/10/17 01:35:58;;;;;;;0.87;0.87;;;;;;;11.33;71.82;100046.69;5107242;27;20287;-65
2023/10/17 01:38:26;;;;;;;0.80;0.80;;;;;;;11.31;71.69;100048.44;5112272;28;20226;-65
2023/10/17 01:40:54;;;;;;;0.90;0.90;;;;;;;11.29;71.53;100052.78;5113564;28;20578;-65
2023/10/17 01:43:22;;;;;;;0.90;0.90;;;;;;;11.12;71.57;100029.22;5113583;28;20317;-65
2023/10/17 01:45:50;;;;;;;0.80;0.80;;;;;;;11.23;72.21;100058.06;5103277;27;20599;-65
2023/10/17 01:48:21;;;;;;;0.70;0.70;;;;;;;11.18;72.46;100052.16;5096047;28;20203;-65
2023/10/17 01:50:48;;;;;;;1.13;1.13;;;;;;;11.16;72.06;100041.09;5113587;27;20226;-65
2023/10/17 01:53:15;;;;;;;0.70;0.70;;;;;;;11.10;72.27;100038.66;5113535;28;20191;-65
2023/10/17 01:55:48;;;;;;;0.60;0.60;;;;;;;11.01;72.86;100049.13;5113429;28;20298;-65
2023/10/17 01:58:18;;;;;;;0.80;0.80;;;;;;;10.98;72.90;100059.47;5104375;27;20199;-65
2023/10/17 02:00:46;;;;;;;0.83;0.83;;;;;;;10.94;72.43;100053.56;5104737;28;20635;-65
2023/10/17 02:03:16;;;;;;;1.17;0.90;;;;;;;10.91;72.79;100045.06;5111309;28;20253;-65
2023/10/17 02:05:44;;;;;;;0.60;0.60;;;;;;;10.88;72.31;100045.16;5112550;28;20234;-65
2023/10/17 02:08:11;;;;;;;1.23;1.23;;;;;;;10.86;72.71;100057.13;5106922;27;20733;-65
2023/10/17 02:10:37;;;;;;;0.67;0.67;;;;;;;10.83;72.22;100055.50;5112740;28;20674;-65
2023/10/17 02:13:06;;;;;;;1.13;1.13;;;;;;;10.79;72.03;100058.16;5104516;28;20195;-65
2023/10/17 02:15:34;;;;;;;0.80;0.80;;;;;;;10.73;71.37;100053.13;5113288;27;20617;-65
2023/10/17 02:18:12;;;;;;;0.77;0.77;;;;;;;10.71;71.09;100054.91;5113059;27;20207;-65
2023/10/17 02:20:44;;;;;;;0.80;0.80;;;;;;;10.68;70.87;100065.22;5104172;27;20752;-65
2023/10/17 02:23:18;;;;;;;1.23;1.23;;;;;;;10.65;70.83;100065.28;5112490;28;20210;-65
2023/10/17 02:25:45;;;;;;;0.60;0.60;;;;;;;10.63;70.67;100062.72;5112250;28;20276;-66
2023/10/17 02:28:12;;;;;;;0.87;0.87;;;;;;;10.41;70.42;100039.25;5112985;28;20191;-65
2023/10/17 02:30:39;;;;;;;1.40;1.40;;;;;;;10.54;70.52;100068.03;5112587;28;20214;-65
2023/10/17 02:33:17;;;;;;;0.80;0.80;;;;;;;10.52;69.83;100070.66;5098753;27;20271;-65
2023/10/17 02:35:53;;;;;;;0.93;0.93;;;;;;;10.47;70.11;100069.88;5102802;28;20204;-65
2023/10/17 02:38:20;;;;;;;1.10;1.00;;;;;;;10.44;69.82;100072.50;5092077;28;20302;-65
2023/10/17 02:40:51;;;;;;;0.87;0.87;;;;;;;10.41;69.46;100067.44;5111406;28;20205;-65
2023/10/17 02:43:18;;;;;;;3.10;1.17;;;;;;;10.37;68.94;100065.81;5112158;28;20774;-65
2023/10/17 02:45:44;;;;;;;0.80;0.80;;;;;;;10.33;69.03;100069.31;5108682;27;20586;-65
2023/10/17 02:48:23;;;;;;;1.40;1.30;;;;;;;10.31;68.64;100065.91;5105699;27;20676;-65
2023/10/17 02:51:00;;;;;;;2.50;1.03;;;;;;;10.19;68.35;100055.06;5092084;28;20203;-65
2023/10/17 02:53:30;;;;;;;0.60;0.60;;;;;;;10.25;68.12;100068.59;5094762;27;20258;-65
2023/10/17 02:55:57;;;;;;;0.63;0.63;;;;;;;10.22;67.91;100066.09;5091890;28;20202;-65
2023/10/17 02:58:24;;;;;;;1.30;1.30;;;;;;;10.17;68.33;100062.78;5094158;27;20239;-65
2023/10/17 03:00:51;;;;;;;0.80;0.80;;;;;;;10.16;67.98;100055.09;5091461;28;20206;-65
2023/10/17 03:03:19;;;;;;;0.77;0.77;;;;;;;10.13;67.87;100061.09;5091472;28;20239;-65
2023/10/17 03:05:50;;;;;;;0.70;0.70;;;;;;;10.09;67.85;100044.09;5111413;27;20198;-65
2023/10/17 03:08:18;;;;;;;1.30;1.30;;;;;;;10.09;67.70;100048.38;5107551;27;20257;-65
2023/10/17 03:10:51;;;;;;;2.30;1.20;;;;;;;10.06;67.47;100050.97;5105342;27;20207;-65
2023/10/17 03:13:39;;;;;;;1.67;1.00;;;;;;;10.02;67.31;100047.63;5091702;28;20280;-66
2023/10/17 03:16:14;;;;;;;1.97;0.83;;;;;;;9.96;67.95;100047.75;5091284;28;20261;-67
2023/10/17 03:18:45;;;;;;;0.60;0.60;;;;;;;9.92;67.93;100046.09;5093401;27;20206;-67
2023/10/17 03:21:11;;;;;;;1.00;1.00;;;;;;;9.89;67.71;100043.59;5108789;27;20259;-66
2023/10/17 03:23:38;;;;;;;2.00;1.80;;;;;;;9.88;67.79;100044.47;5109937;27;20650;-66
2023/10/17 03:26:03;;;;;;;2.00;1.17;;;;;;;9.85;68.14;100044.53;5111610;27;20222;-66
2023/10/17 03:28:33;;;;;;;0.93;0.93;;;;;;;9.82;67.78;100044.59;5111560;28;20198;-66
2023/10/17 03:30:58;;;;;;;0.83;0.83;;;;;;;9.81;68.05;100048.00;5099306;27;20199;-64
2023/10/17 03:33:27;;;;;;;1.23;1.23;;;;;;;9.80;68.35;100041.19;5091134;28;20675;-66
2023/10/17 03:36:05;;;;;;;1.80;1.70;;;;;;;9.78;68.53;100048.06;5100456;28;20264;-66
2023/10/17 03:38:33;;;;;;;0.97;0.97;;;;;;;9.73;67.97;100049.84;5110089;28;20191;-64
2023/10/17 03:41:06;;;;;;;0.73;0.73;;;;;;;9.70;68.24;100055.00;5110502;28;20210;-67
2023/10/17 03:43:39;;;;;;;9.73;0.83;;;;;;;9.68;68.24;100067.84;5110917;28;20217;-66
2023/10/17 03:46:05;;;;;;;1.07;1.07;;;;;;;9.66;68.57;100061.06;5109044;28;20222;-66
2023/10/17 03:48:36;;;;;;;0.90;0.87;;;;;;;9.63;68.87;100056.00;5110764;28;20697;-66
2023/10/17 03:51:15;;;;;;;1.43;1.20;;;;;;;9.60;68.54;100058.56;5110961;28;20199;-66
2023/10/17 03:53:46;;;;;;;0.60;0.60;;;;;;;9.57;68.21;100053.50;5110981;28;20292;-67
2023/10/17 03:56:23;;;;;;;0.70;0.70;;;;;;;9.54;68.30;100053.56;5110294;27;20207;-66
2023/10/17 03:58:53;;;;;;;6.37;1.50;;;;;;;9.40;68.80;100041.00;5110884;28;20229;-66
2023/10/17 04:01:23;;;;;;;1.83;1.77;;;;;;;9.43;68.21;100059.69;5103703;28;20203;-66
2023/10/17 04:03:53;;;;;;;4.90;1.13;;;;;;;9.42;68.23;100062.28;5090423;28;20214;-66
2023/10/17 04:06:34;;;;;;;3.30;0.80;;;;;;;9.39;68.38;100060.63;5099679;27;20202;-66
2023/10/17 04:09:17;;;;;;;1.90;1.80;;;;;;;9.33;68.45;100050.47;5110402;28;20212;-66
2023/10/17 04:11:49;;;;;;;0.60;0.60;;;;;;;9.33;68.69;100053.03;5110713;28;20658;-66
2023/10/17 04:14:17;;;;;;;0.60;0.60;;;;;;;9.18;69.27;100025.09;5110319;28;20201;-66
2023/10/17 04:16:46;;;;;;;0.60;0.60;;;;;;;9.30;69.48;100053.09;5102483;28;20710;-66
2023/10/17 04:19:18;;;;;;;0.97;0.97;;;;;;;9.26;69.13;100055.69;5110099;28;20586;-67
2023/10/17 04:21:51;;;;;;;0.70;0.70;;;;;;;9.25;69.60;100059.97;5110822;28;20195;-66
2023/10/17 04:24:26;;;;;;;0.93;0.93;;;;;;;9.22;69.68;100057.44;5110217;28;20214;-66
2023/10/17 04:27:06;;;;;;;0.67;0.67;;;;;;;9.21;69.79;100055.75;5111543;28;20217;-66
2023/10/17 04:29:34;;;;;;;0.83;0.83;;;;;;;9.18;69.85;100060.91;5109284;28;20202;-66
2023/10/17 04:32:02;;;;;;;0.80;0.80;;;;;;;9.12;69.98;100076.34;5110555;28;20190;-66
2023/10/17 04:34:29;;;;;;;1.20;1.20;;;;;;;9.10;70.28;100075.53;5110361;28;20226;-66
2023/10/17 04:36:57;;;;;;;1.67;1.67;;;;;;;9.06;70.24;100066.19;5110771;28;20230;-67
2023/10/17 04:39:35;;;;;;;1.30;1.30;;;;;;;8.97;70.15;100063.78;5107637;28;20222;-66
2023/10/17 04:42:09;;;;;;;1.43;1.43;;;;;;;8.89;69.89;100050.22;5090428;28;20621;-66
2023/10/17 04:44:36;;;;;;;1.43;1.43;;;;;;;8.91;70.34;100051.06;5106672;28;20267;-65
2023/10/17 04:49:50;;;;;;;0.70;0.70;;;;;;;8.79;69.93;100051.22;5110834;28;20570;-65
2023/10/17 04:52:19;;;;;;;0.60;0.60;;;;;;;8.73;69.87;100056.41;5108016;28;20294;-64
2023/10/17 04:54:47;;;;;;;1.00;1.00;;;;;;;8.64;70.10;100056.50;5110574;28;20286;-65
2023/10/17 04:57:16;;;;;;;1.03;1.03;;;;;;;8.60;70.84;100059.97;5102975;28;20200;-65
2023/10/17 04:59:55;;;;;;;1.57;1.57;;;;;;;8.43;71.55;100063.56;5107525;28;20228;-64
2023/10/17 05:02:38;;;;;;;0.73;0.73;;;;;;;8.43;71.64;100058.44;5104458;28;20209;-65
2023/10/17 05:08:18;;;;;;;1.00;1.00;;;;;;;8.41;72.04;100072.94;5047610;28;20250;-64
2023/10/17 06:19:20;;;;;;;0.73;0.73;;;;;;;9.20;75.10;100123.16;5106137;28;20295;-65
2023/10/17 06:33:02;;;;;;;1.87;1.87;;;;;;;9.60;76.14;100125.97;5102510;27;20206;-65
2023/10/17 06:35:31;;;;;;;1.17;1.17;;;;;;;9.63;76.27;100125.13;5109340;28;20195;-66
2023/10/17 06:37:58;;;;;;;1.43;1.43;;;;;;;9.66;76.85;100125.88;5099855;27;20721;-65
2023/10/17 06:40:32;;;;;;;1.90;1.50;;;;;;;9.75;76.50;100130.03;5100661;27;20714;-65
2023/10/17 06:42:59;;;;;;;0.60;0.60;;;;;;;9.84;77.48;100130.75;5105326;28;20225;-65
2023/10/17 06:45:27;;;;;;;1.00;1.00;;;;;;;9.91;76.47;100127.22;5111873;27;20649;-65
2023/10/17 06:47:58;;;;;;;0.90;0.90;;;;;;;9.94;76.78;100129.75;5111670;28;20589;-65
2023/10/17 06:53:15;;;;;;;0.90;0.90;;;;;;;10.15;76.12;100127.72;5090676;28;20201;-66
2023/10/17 06:55:44;;;;;;;0.70;0.70;;;;;;;10.26;76.62;100126.66;5108376;28;20206;-65
2023/10/17 06:58:11;;;;;;;7.63;1.37;;;;;;;10.41;76.50;100123.81;5105461;28;20207;-65
2023/10/17 07:00:44;;;;;;;0.90;0.90;;;;;;;10.51;75.94;100120.22;5103960;27;20256;-65
2023/10/17 07:03:13;;;;;;;0.60;0.60;;;;;;;10.61;75.50;100115.78;5109980;27;20548;-65
2023/10/17 07:05:40;;;;;;;1.00;1.00;;;;;;;10.77;75.14;100111.19;5109568;27;20233;-66
2023/10/17 07:08:13;;;;;;;1.07;0.97;;;;;;;10.88;75.44;100109.28;5099964;27;20667;-66
2023/10/17 07:10:53;;;;;;;2.10;1.40;;;;;;;11.09;75.61;100119.09;5107438;28;20732;-66
2023/10/17 07:14:22;;;;;;;0.70;0.70;;;;;;;11.29;73.94;100127.22;5108297;28;20211;-66
2023/10/17 07:16:57;;;;;;;1.00;1.00;;;;;;;11.51;73.29;100123.28;5066650;28;20305;-66
2023/10/17 07:22:11;;;;;;;0.93;0.93;;;;;;;11.89;72.28;100139.59;5101634;28;20200;-66
2023/10/17 07:24:42;;;;;;;1.03;1.03;;;;;;;12.02;72.61;100135.81;5108740;28;20704;-66
2023/10/17 07:27:18;;;;;;;1.07;1.07;;;;;;;12.14;70.33;100127.84;5101933;28;20218;-66
2023/10/17 07:29:58;;;;;;;0.93;0.93;;;;;;;12.27;70.35;100126.66;5110274;28;20581;-67
2023/10/17 07:32:32;;;;;;;1.03;1.03;;;;;;;12.42;70.19;100130.53;5103731;28;20258;-66
2023/10/17 07:35:04;;;;;;;1.73;1.63;;;;;;;12.54;69.28;100120.78;5098674;28;20194;-66
2023/10/17 07:37:38;;;;;;;1.03;1.03;;;;;;;12.84;68.67;100124.25;5099858;28;20282;-66
2023/10/17 07:40:23;;;;;;;1.03;1.03;;;;;;;13.00;69.01;100115.19;5098702;28;20210;-66
2023/10/17 07:42:52;;;;;;;1.23;1.20;;;;;;;13.24;66.22;100113.69;5102454;28;20216;-67
2023/10/17 07:45:21;;;;;;;0.87;0.87;;;;;;;13.39;64.67;100110.66;5108588;28;21046;-67
2023/10/17 07:47:55;;;;;;;1.17;1.17;;;;;;;13.36;65.18;100103.00;5109603;28;20206;-67
2023/10/17 07:50:25;;;;;;;1.53;1.30;;;;;;;13.55;64.66;100096.41;5108322;28;20703;-68
2023/10/17 07:52:59;;;;;;;0.97;0.97;;;;;;;13.73;64.79;100099.31;5107314;28;20257;-67
2023/10/17 07:55:35;;;;;;;4.33;1.30;;;;;;;13.84;63.10;100097.22;5107634;28;20234;-68
2023/10/17 07:58:06;;;;;;;1.47;1.37;;;;;;;13.91;63.37;100090.97;5101970;28;20198;-68
2023/10/17 08:00:34;;;;;;;0.63;0.63;;;;;;;14.01;62.84;100088.03;5098671;28;20299;-68
2023/10/17 08:03:07;;;;;;;1.30;1.30;;;;;;;14.16;62.21;100084.09;5096738;28;20222;-68
2023/10/17 08:05:37;;;;;;;2.30;1.10;;;;;;;14.29;62.66;100093.09;5099723;28;20269;-68
2023/10/17 08:08:08;;;;;;;1.33;1.33;;;;;;;14.41;61.75;100095.28;5104625;28;20256;-67
2023/10/17 08:10:36;;;;;;;0.80;0.80;;;;;;;14.46;61.86;100096.00;5102794;28;20235;-68
2023/10/17 08:13:03;;;;;;;0.83;0.80;;;;;;;14.46;61.62;100084.81;5107176;28;20252;-68
2023/10/17 08:15:38;;;;;;;1.00;1.00;;;;;;;14.63;61.60;100085.94;5095194;28;20273;-68
2023/10/17 08:18:14;;;;;;;1.60;1.50;;;;;;;14.85;60.54;100077.41;5097517;28;20200;-67
2023/10/17 08:20:54;;;;;;;0.90;0.90;;;;;;;15.03;59.59;100066.38;5096396;28;20201;-67
2023/10/17 08:23:25;;;;;;;0.97;0.97;;;;;;;15.19;58.76;100077.81;5110530;28;20281;-68
2023/10/17 08:25:59;;;;;;;0.60;0.60;;;;;;;15.19;58.51;100072.63;5098323;28;20273;-68
2023/10/17 08:28:33;;;;;;;0.97;0.97;;;;;;;15.25;58.83;100068.06;5104198;28;20205;-68
2023/10/17 08:31:17;;;;;;;1.00;1.00;;;;;;;15.33;58.00;100072.13;5110494;28;20853;-67
2023/10/17 08:33:50;;;;;;;0.80;0.80;;;;;;;15.42;57.19;100059.69;5110681;28;20206;-68
2023/10/17 08:36:16;;;;;;;1.10;1.10;;;;;;;15.51;57.61;100063.69;5102470;28;20208;-68
2023/10/17 08:38:43;;;;;;;2.30;1.80;;;;;;;15.49;57.76;100062.88;5103931;28;20720;-68
2023/10/17 08:41:09;;;;;;;1.57;1.33;;;;;;;15.50;57.21;100057.69;5109412;28;20884;-68
2023/10/17 08:43:38;;;;;;;1.13;1.13;;;;;;;15.43;57.61;100056.19;5110378;28;20218;-68
2023/10/17 08:46:10;;;;;;;0.90;0.90;;;;;;;15.25;57.44;100055.16;5100637;28;20210;-68
2023/10/17 08:48:37;;;;;;;1.37;0.70;;;;;;;14.99;59.25;100046.75;5101555;28;20216;-68
2023/10/17 08:51:07;;;;;;;0.83;0.83;;;;;;;15.15;58.55;100047.84;5109675;28;20623;-67
2023/10/17 08:53:38;;;;;;;0.60;0.60;;;;;;;14.96;59.02;100044.28;5112774;28;20226;-67
2023/10/17 08:56:08;;;;;;;0.83;0.83;;;;;;;15.03;61.35;100040.53;5112527;27;20669;-68
2023/10/17 08:58:37;;;;;;;0.80;0.80;;;;;;;15.11;59.53;100046.28;5114573;28;20666;-68
2023/10/17 09:01:11;;;;;;;1.33;1.33;;;;;;;15.28;59.19;100046.47;5116882;27;20709;-68
2023/10/17 09:03:44;;;;;;;1.10;1.10;;;;;;;15.20;58.28;100033.84;5114265;28;20309;-68
2023/10/17 09:08:55;;;;;;;0.70;0.70;;;;;;;15.30;58.60;100036.06;5111259;28;20575;-68
2023/10/17 09:11:33;;;;;;;2.77;1.40;;;;;;;15.37;58.87;100025.44;5115497;27;20253;-67
2023/10/17 09:14:16;;;;;;;0.80;0.80;;;;;;;15.45;57.93;100018.22;5104830;27;20241;-67
2023/10/17 09:16:50;;;;;;;4.30;0.80;;;;;;;15.43;57.82;100024.34;5106580;27;20230;-67
2023/10/17 09:19:20;;;;;;;0.70;0.70;;;;;;;15.47;57.70;100016.44;5109846;28;20627;-67
2023/10/17 09:21:49;;;;;;;0.60;0.60;;;;;;;15.50;58.51;99994.81;5102764;28;20290;-67
2023/10/17 09:24:32;;;;;;;6.90;1.07;;;;;;;15.72;57.65;99999.03;5111578;28;20239;-67
2023/10/17 09:26:59;;;;;;;2.23;0.73;;;;;;;15.73;56.41;99992.13;5111519;28;20282;-67
2023/10/17 09:29:27;;;;;;;0.90;0.90;;;;;;;15.67;56.33;99992.38;5110439;28;20194;-67
2023/10/17 09:31:55;;;;;;;1.67;0.70;;;;;;;15.66;56.41;99988.13;5107298;28;20195;-67
2023/10/17 09:34:25;;;;;;;0.90;0.90;;;;;;;15.77;56.84;99982.50;5110611;28;20639;-67
2023/10/17 09:37:03;;;;;;;1.03;1.03;;;;;;;15.85;56.32;99988.19;5111676;28;20294;-67
2023/10/17 09:39:33;;;;;;;0.70;0.70;;;;;;;15.85;56.63;99985.59;5113162;28;20198;-67
2023/10/17 09:41:59;;;;;;;0.87;0.87;;;;;;;15.91;56.68;99987.91;5113217;28;20198;-67
2023/10/17 09:44:26;;;;;;;0.70;0.70;;;;;;;15.90;55.78;99974.13;5113265;28;20295;-67
2023/10/17 09:46:57;;;;;;;0.90;0.90;;;;;;;15.96;55.82;99975.66;5112831;28;20199;-67
2023/10/17 09:49:36;;;;;;;0.93;0.93;;;;;;;15.96;55.26;99958.34;5105675;28;20276;-67
2023/10/17 09:52:09;;;;;;;1.10;1.10;;;;;;;16.13;56.96;99973.16;5107322;28;20882;-67
2023/10/17 09:54:41;;;;;;;1.23;1.13;;;;;;;16.13;55.50;99939.53;5112863;28;20597;-67
2023/10/17 09:57:14;;;;;;;1.03;1.03;;;;;;;16.05;54.02;99931.28;5112127;28;20298;-67
2023/10/17 09:59:52;;;;;;;0.70;0.70;;;;;;;16.23;54.61;99956.31;5111721;27;20289;-67
2023/10/17 10:02:20;;;;;;;1.00;1.00;;;;;;;16.26;54.97;99956.19;5111875;28;20778;-67
2023/10/17 10:04:48;;;;;;;0.93;0.93;;;;;;;16.23;54.39;99948.56;5097826;28;20218;-67
2023/10/17 10:07:25;;;;;;;0.70;0.70;;;;;;;16.27;54.96;99939.75;5112635;28;20697;-67
2023/10/17 10:09:52;;;;;;;2.10;1.33;;;;;;;16.34;55.11;99928.22;5104664;28;20267;-67
2023/10/17 10:12:19;;;;;;;1.00;1.00;;;;;;;16.46;54.86;99929.41;5109115;28;20198;-68
2023/10/17 10:14:49;;;;;;;1.00;1.00;;;;;;;16.49;54.79;99917.16;5110796;27;20614;-67
2023/10/17 10:17:17;;;;;;;0.80;0.80;;;;;;;16.57;54.31;99904.75;5110616;28;20591;-67
2023/10/17 10:20:04;;;;;;;1.37;1.27;;;;;;;16.76;54.78;99908.16;5105629;27;20199;-68
2023/10/17 10:22:51;;;;;;;0.90;0.90;;;;;;;16.77;54.12;99902.06;5103060;28;20199;-68
2023/10/17 10:25:19;;;;;;;0.70;0.70;;;;;;;16.95;53.63;99883.97;5099869;28;20517;-67
2023/10/17 10:27:46;;;;;;;0.80;0.80;;;;;;;17.00;52.61;99889.75;5106549;28;20202;-67
2023/10/17 10:30:38;;;;;;;2.10;0.93;;;;;;;17.05;53.30;99882.59;5109148;27;20210;-67
2023/10/17 10:33:05;;;;;;;0.63;0.63;;;;;;;16.93;54.43;99881.44;5105103;27;20235;-67
2023/10/17 10:35:33;;;;;;;0.70;0.70;;;;;;;16.98;53.18;99876.03;5111097;27;20278;-68
2023/10/17 10:38:01;;;;;;;0.70;0.70;;;;;;;17.00;52.74;99866.44;5097403;27;20844;-67
2023/10/17 10:40:32;;;;;;;1.77;0.80;;;;;;;16.93;53.00;99870.25;5112268;28;20199;-67
2023/10/17 10:43:01;;;;;;;0.60;0.60;;;;;;;17.05;52.85;99859.31;5110734;28;20226;-67
2023/10/17 10:45:35;;;;;;;0.53;0.53;;;;;;;16.90;53.33;99860.88;5111942;27;20225;-67
2023/10/17 10:48:04;;;;;;;1.27;1.00;;;;;;;16.88;52.91;99873.06;5112067;28;20216;-68
2023/10/17 10:50:33;;;;;;;1.00;1.00;;;;;;;17.06;53.14;99866.16;5111569;28;20202;-67
2023/10/17 10:53:19;;;;;;;1.00;1.00;;;;;;;17.22;53.84;99851.53;5110084;28;20202;-68
2023/10/17 10:55:55;;;;;;;0.67;0.67;;;;;;;17.31;53.74;99851.91;5110996;28;20195;-67
2023/10/17 10:58:22;;;;;;;1.50;0.90;;;;;;;17.33;51.82;99854.41;5111683;27;20682;-67
2023/10/17 11:00:49;;;;;;;0.70;0.70;;;;;;;17.28;52.04;99848.63;5112247;28;20259;-68
2023/10/17 11:03:18;;;;;;;0.90;0.90;;;;;;;17.12;52.67;99852.91;5111409;28;20201;-67
2023/10/17 11:05:54;;;;;;;0.50;0.50;;;;;;;16.89;52.61;99855.78;5112012;28;20275;-67
2023/10/17 11:08:24;;;;;;;1.67;0.93;;;;;;;16.96;52.43;99844.22;5108939;28;20198;-67
2023/10/17 11:10:51;;;;;;;1.17;1.17;;;;;;;17.01;52.30;99843.06;5107623;28;20202;-68
2023/10/17 11:13:18;;;;;;;0.80;0.80;;;;;;;17.00;52.26;99843.13;5110984;28;20630;-67
2023/10/17 11:15:46;;;;;;;0.87;0.87;;;;;;;17.20;52.26;99841.22;5110239;28;20614;-68
2023/10/17 11:18:15;;;;;;;0.70;0.70;;;;;;;17.27;52.29;99834.84;5111582;27;20211;-68
2023/10/17 11:20:43;;;;;;;0.73;0.73;;;;;;;17.40;51.42;99840.22;5105964;27;20198;-68
2023/10/17 11:23:13;;;;;;;0.70;0.70;;;;;;;17.38;51.28;99834.31;5110349;28;20200;-68
2023/10/17 11:25:46;;;;;;;1.10;1.10;;;;;;;17.33;50.87;99829.34;5098606;28;20310;-67
2023/10/17 11:28:17;;;;;;;0.70;0.70;;;;;;;17.23;51.03;99822.94;5109205;28;20199;-68
2023/10/17 11:30:45;;;;;;;0.77;0.77;;;;;;;17.27;51.73;99818.44;5101342;28;20652;-68
2023/10/17 11:33:15;;;;;;;0.53;0.53;;;;;;;17.26;51.66;99812.41;5100411;28;20280;-68
2023/10/17 11:35:50;;;;;;;0.60;0.60;;;;;;;17.14;52.03;99813.03;5105620;28;20283;-68
2023/10/17 11:38:34;;;;;;;0.53;0.53;;;;;;;17.18;51.19;99813.72;5111145;28;20234;-67
2023/10/17 11:41:04;;;;;;;0.40;0.40;;;;;;;17.30;51.98;99813.94;5111173;28;20194;-68
2023/10/17 11:43:35;;;;;;;1.90;1.27;;;;;;;17.18;51.90;99809.41;5110743;28;20215;-68
2023/10/17 11:46:04;;;;;;;0.80;0.80;;;;;;;17.30;51.09;99802.75;5110986;28;20587;-67
2023/10/17 11:48:33;;;;;;;0.50;0.50;;;;;;;17.23;52.17;99796.19;5110466;28;20644;-67
2023/10/17 11:51:07;;;;;;;0.50;0.50;;;;;;;17.32;51.95;99791.38;5092701;28;20260;-67
2023/10/17 11:53:35;;;;;;;0.60;0.60;;;;;;;17.29;51.63;99791.53;5105606;27;20209;-67
2023/10/17 11:56:03;;;;;;;1.13;1.03;;;;;;;17.44;51.97;99784.72;5101893;27;20195;-67
2023/10/17 11:58:34;;;;;;;0.80;0.80;;;;;;;17.47;51.07;99787.16;5103845;28;20199;-67
2023/10/17 12:01:02;;;;;;;0.70;0.70;;;;;;;17.51;50.73;99782.66;5111058;28;20210;-68
2023/10/17 12:03:29;;;;;;;0.60;0.60;;;;;;;17.67;50.38;99786.97;5108850;27;20200;-67
2023/10/17 12:05:57;;;;;;;0.67;0.67;;;;;;;17.74;50.75;99783.13;5111023;28;20226;-68
2023/10/17 12:08:29;;;;;;;1.93;0.70;;;;;;;17.71;50.55;99778.09;5109512;28;20281;-68
2023/10/17 12:10:56;;;;;;;0.80;0.80;;;;;;;17.68;50.56;99778.28;5110644;28;20230;-68
2023/10/17 12:13:26;;;;;;;0.70;0.70;;;;;;;17.77;50.53;99771.78;5111066;27;20202;-68
2023/10/17 12:15:56;;;;;;;0.80;0.80;;;;;;;17.83;50.58;99767.06;5110988;28;20253;-68
2023/10/17 12:18:25;;;;;;;0.67;0.67;;;;;;;17.95;49.77;99769.94;5104328;28;20207;-68
2023/10/17 12:20:55;;;;;;;0.60;0.60;;;;;;;18.04;50.26;99766.84;5110695;28;20679;-68
2023/10/17 12:23:29;;;;;;;0.97;0.97;;;;;;;18.10;51.04;99764.75;5110090;28;20207;-68
2023/10/17 12:25:58;;;;;;;0.70;0.70;;;;;;;18.08;49.24;99763.16;5101288;28;20274;-68
2023/10/17 12:28:27;;;;;;;0.80;0.80;;;;;;;18.14;50.14;99760.22;5108465;28;20203;-68
2023/10/17 12:30:54;;;;;;;0.83;0.83;;;;;;;18.17;50.04;99749.66;5109008;28;20236;-68
2023/10/17 12:33:23;;;;;;;0.50;0.50;;;;;;;18.22;49.53;99734.69;5097527;28;20211;-68
2023/10/17 12:35:51;;;;;;;0.60;0.60;;;;;;;18.33;49.55;99734.91;5108119;28;20581;-68
2023/10/17 12:38:24;;;;;;;5.30;0.80;;;;;;;18.29;50.56;99744.63;5109950;28;20675;-68
2023/10/17 12:40:51;;;;;;;1.03;1.03;;;;;;;18.23;48.89;99733.75;5110752;28;20203;-68
2023/10/17 12:43:19;;;;;;;0.90;0.90;;;;;;;18.06;48.92;99739.06;5107390;28;20209;-68
2023/10/17 12:45:47;;;;;;;0.90;0.90;;;;;;;17.98;49.39;99744.66;5096089;28;20315;-68
2023/10/17 12:48:14;;;;;;;0.60;0.60;;;;;;;18.02;49.79;99742.75;5107148;28;20208;-68
2023/10/17 12:50:43;;;;;;;1.00;1.00;;;;;;;17.96;49.83;99740.50;5107066;28;22112;-68
2023/10/17 12:53:11;;;;;;;0.93;0.93;;;;;;;17.89;50.19;99741.75;5110511;28;20199;-68
2023/10/17 12:55:38;;;;;;;1.17;1.17;;;;;;;17.83;50.41;99746.31;5108132;28;20227;-68
2023/10/17 12:58:06;;;;;;;0.60;0.60;;;;;;;17.86;50.56;99739.31;5110506;28;20278;-68
2023/10/17 13:00:33;;;;;;;0.80;0.80;;;;;;;17.85;50.55;99738.47;5107963;28;20202;-68
2023/10/17 13:03:01;;;;;;;1.00;1.00;;;;;;;17.82;51.13;99729.13;5110900;28;20242;-68
2023/10/17 13:05:27;;;;;;;0.80;0.80;;;;;;;17.96;50.81;99735.31;5109859;28;20215;-68
2023/10/17 13:07:54;;;;;;;0.97;0.97;;;;;;;17.98;49.95;99733.44;5109811;28;20199;-68
2023/10/17 13:10:21;;;;;;;0.97;0.97;;;;;;;17.93;50.90;99740.66;5109552;28;20202;-68
2023/10/17 13:12:48;;;;;;;0.80;0.80;;;;;;;17.90;49.74;99736.44;5110027;28;20203;-68
2023/10/17 13:15:16;;;;;;;1.10;1.10;;;;;;;17.83;50.71;99714.41;5109603;28;20203;-68
2023/10/17 13:17:43;;;;;;;0.80;0.80;;;;;;;17.94;50.31;99737.13;5111278;28;20635;-68
2023/10/17 13:20:13;;;;;;;1.03;1.03;;;;;;;17.98;51.01;99734.28;5110225;28;20870;-68